Nearby METAR Reports - Updated every 30 to 60 minutes

KMYV - Marysville, California, USA
Distance from station: SE 6mi, 9.6km
Updated: Fri, 17-Aug-2018 3:53pm PDT
Clear
Clear
 Wind from SW
Wind: SW 6 mph , 9 km/h
Temperature: 99°F , 37°C
Dew Point: 52°F , 11°C
Humidity: 21%
Barometer: 29.95 inHg , 1014.2 hPa
Clouds: Clear
Visibility: 10 miles , 16 km
2018/08/17 22:53 KMYV 172253Z AUTO 23005KT 10SM CLR 37/11 A2995 RMK AO2 SLP146 T03720106
KOVE - Oroville, California, USA
Distance from station: 0 27mi, 45km
Updated: Fri, 17-Aug-2018 3:53pm PDT
Clear
Clear
 Wind from SW
Wind: SW 5 mph , 7 km/h
Temperature: 99°F , 37°C
Dew Point: 54°F , 12°C
Humidity: 22%
Barometer: 29.97 inHg , 1014.9 hPa
Clouds: Clear
Visibility: 10 miles , 16 km
2018/08/17 22:53 KOVE 172253Z AUTO 22004KT 10SM CLR 37/12 A2997 RMK AO2 SLP149 T03670117
 
KCIC - Chico Municipal, California, USA
Distance from station: NNW 50mi, 80.6km
Updated: Fri, 17-Aug-2018 2:50pm PDT
NOT Current
Clear
Clear
 Wind from S
Wind: S 10 mph , 17 km/h
Temperature: 97°F , 36°C
Dew Point: 41°F , 5°C
Humidity: 14%
Barometer: 29.99 inHg , 1015.6 hPa
Clouds: Clear
Visibility: 10 miles , 16 km
2018/08/17 21:50 KCIC 172150Z 19009KT 10SM SKC 36/05 A2999
KRBL - Red Bluff, California, USA
Distance from station: NNW 85mi, 137km
Updated: Fri, 17-Aug-2018 3:54pm PDT
Clear
Clear
 Wind from S
Wind: S 8 mph , 13 km/h
Temperature: 100°F , 38°C
Dew Point: 46°F , 8°C
Humidity: 16%
Barometer: 29.96 inHg , 1014.6 hPa
Clouds: Clear
Visibility: 10 miles , 16 km
2018/08/17 22:54 KRBL 172254Z AUTO 18007KT 150V220 10SM CLR 38/08 A2996 RMK AO2 SLP140 T03780078
 
KRDD - Redding, California, USA
Distance from station: N 110mi, 177km
Updated: Fri, 17-Aug-2018 3:53pm PDT
Haze, Smoke, Clear
Haze, Smoke, Clear
 Wind from SSE
Wind: SSE 6 mph , 9 km/h
Temperature: 100°F , 38°C
Dew Point: 39°F , 4°C
Humidity: 12%
Barometer: 29.95 inHg , 1014.2 hPa
Summary: Haze, Smoke
Clouds: Clear
Visibility: 6 miles , 10 km
2018/08/17 22:53 KRDD 172253Z 15005KT 6SM HZ FU CLR 38/04 A2995 RMK AO2 SLP136 T03780039
KMHS - Mount Shasta, California, USA
Distance from station: N 170mi, 274km
Updated: Fri, 17-Aug-2018 4:19pm PDT
Haze, Overcast
Haze, Overcast
 Wind from varies
Wind: varies 3 mph , 6 km/h
Temperature: 84°F , 29°C
Dew Point: 39°F , 4°C
Humidity: 20%
Barometer: 30.15 inHg , 1021 hPa
Summary: Haze
Clouds: Overcast
Visibility: 3/4 mile , 1.2 km
Cloud details: Mostly cloudy 3000 ft
Overcast 3700 ft
2018/08/17 23:19 KMHS 172319Z AUTO VRB03KT 3/4SM HZ BKN030 OVC037 29/04 A3015 RMK AO2 T02890044
 
KSIY - Montague/Siskiyou, California, USA
Distance from station: N 214mi, 3441km
Updated: Fri, 17-Aug-2018 3:53pm PDT
Haze, Clear
Haze, Clear
 
Temperature: 91°F , 33°C
Dew Point: 34°F , 1°C
Humidity: 13%
Barometer: 30.10 inHg , 1019.3 hPa
Summary: Haze
Clouds: Clear
Visibility: 6 miles , 10 km
2018/08/17 22:53 KSIY 172253Z AUTO 6SM HZ CLR 33/01 A3010 RMK AO2 SLP178 T03330011
KO54 - Weaverville, California, USA
Distance from station: NW 161mi, 259km
Updated: Fri, 17-Aug-2018 4:15pm PDT
Clear
Clear
 Wind from WSW
Wind: WSW 5 mph , 7 km/h
Temperature: 95°F , 35°C
Dew Point: 28°F , -2°C
Humidity: 9%
Barometer: 30.07 inHg , 1018.3 hPa
Clouds: Clear
Visibility: 7 miles , 11 km
2018/08/17 23:15 KO54 172315Z AUTO 24004KT 7SM CLR 35/M02 A3007 RMK AO1
 
KO86 - Trinity Center, California, USA
Distance from station: NNW 181mi, 291km
Updated: Tue, 03-Apr-2018 9:35pm PDT
NOT Current
Partly cloudy
Partly cloudy
 Wind from W
Wind: W 3 mph , 6 km/h
Temperature: 54°F , 12°C
Dew Point: 36°F , 2°C
Humidity: 51%
Barometer: 30.02 inHg , 1016.6 hPa
Clouds: Partly cloudy
Visibility: 10 miles , 16 km
Cloud details: Partly cloudy 10000 ft
2018/04/04 04:35 KO86 040435Z AUTO 27003KT 10SM SCT100 12/02 A3002 RMK AO1
KCEC - Crescent City, California, USA
Distance from station: SE 355mi, 571km
Updated: Fri, 17-Aug-2018 3:56pm PDT
Clear
Clear
 Wind from N
Wind: N 14 mph , 22 km/h, Gust: 20 mph , 31 km/h
Temperature: 63°F , 17°C
Dew Point: 54°F , 12°C
Humidity: 73%
Barometer: 30.09 inHg , 1019 hPa
Clouds: Clear
Visibility: 9 miles , 14 km
2018/08/17 22:56 KCEC 172256Z AUTO 35012G17KT 9SM CLR 17/12 A3009 RMK AO2 SLP188 T01720122
 
KACV - Arcata/Eureka, California, USA
Distance from station: WNW 259mi, 417km
Updated: Fri, 17-Aug-2018 3:53pm PDT
Clear
Clear
 Wind from NW
Wind: NW 6 mph , 9 km/h
Temperature: 59°F , 15°C
Dew Point: 54°F , 12°C
Humidity: 82%
Barometer: 30.11 inHg , 1019.6 hPa
Clouds: Clear
Visibility: 10 miles , 16 km
2018/08/17 22:53 KACV 172253Z AUTO 32005KT 10SM CLR 15/12 A3011 RMK AO2 SLP200 T01500122
KFOT - Fortuna, California, USA
Distance from station: S 245mi, 395km
Updated: Fri, 17-Aug-2018 4:15pm PDT
Clear
Clear
 Wind from NW
Wind: NW 14 mph , 22 km/h
Temperature: 64°F , 18°C
Dew Point: 55°F , 13°C
Humidity: 73%
Barometer: 30.11 inHg , 1019.6 hPa
Clouds: Clear
Visibility: 10 miles , 16 km
2018/08/17 23:15 KFOT 172315Z AUTO 31012KT 10SM CLR 18/13 A3011 RMK AO1
 
KAAT - Alturas, California, USA
Distance from station: E 256mi, 412km
Updated: Fri, 17-Aug-2018 3:55pm PDT
Haze, Partly cloudy
Haze, Partly cloudy
 Wind from W
Wind: W 12 mph , 19 km/h
Temperature: 84°F , 29°C
Dew Point: 21°F , -6°C
Humidity: 10%
Barometer: 30.20 inHg , 1022.7 hPa
Summary: Haze
Clouds: Partly cloudy
Visibility: 3 miles , 5 km
Cloud details: Partly cloudy 3000 ft
2018/08/17 22:55 KAAT 172255Z AUTO 28010KT 3SM HZ SCT030 29/M06 A3020 RMK AO2 SLP184 T02941056
KSVE - Susanville Muni, California, USA
Distance from station: E 241mi, 145km
Updated: Fri, 17-Aug-2018 4:15pm PDT
Clear
Clear
 Wind from W
Wind: W 14 mph , 22 km/h, Gust: 17 mph , 28 km/h
Temperature: 91°F , 33°C
Dew Point: 34°F , 1°C
Humidity: 13%
Barometer: 30.17 inHg , 1021.7 hPa
Clouds: Clear
Visibility: 10 miles , 16 km
2018/08/17 23:15 KSVE 172315Z AUTO 28012G15KT 10SM CLR 33/01 A3017 RMK AO2

spacer wunderground wow PWS SWWN Image Map